Time;durP1;ratioP1;P1;durP2;ratioP2;P2;SDS_P1;SDS_P2;PMS_P1;PMS_P2;Temp;Humidity;BMP_temperature;BMP_pressure;BME280_temperature;BME280_humidity;BME280_pressure;Samples;Min_cycle;Max_cycle;Signal;HPM_P1;HPM_P2
2023/10/01 00:00:21;;;;;;;14.20;7.77;;;;;;;13.99;93.75;99110.66;4074590;29;20624;-89
2023/10/01 00:02:25;;;;;;;13.87;7.57;;;;;;;14.00;93.72;99108.88;4075761;29;20644;-89
2023/10/01 00:04:31;;;;;;;9.27;6.73;;;;;;;13.99;94.23;99118.50;4079640;29;20672;-89
2023/10/01 00:06:35;;;;;;;12.50;7.63;;;;;;;13.98;94.47;99119.47;4079399;29;20648;-89
2023/10/01 00:08:39;;;;;;;10.70;7.40;;;;;;;13.94;93.99;99120.59;4080712;29;21296;-90
2023/10/01 00:10:42;;;;;;;12.87;7.73;;;;;;;13.93;94.43;99110.22;4090693;28;20663;-89
2023/10/01 00:12:46;;;;;;;12.60;8.03;;;;;;;13.92;94.12;99112.00;4089524;28;20632;-89
2023/10/01 00:14:52;;;;;;;12.87;8.07;;;;;;;13.93;94.98;99110.22;4091531;28;20639;-89
2023/10/01 00:16:55;;;;;;;13.90;8.47;;;;;;;13.91;94.46;99110.31;4109144;28;20646;-89
2023/10/01 00:18:59;;;;;;;11.60;6.97;;;;;;;13.93;94.47;99112.84;4091102;29;20647;-89
2023/10/01 00:21:03;;;;;;;9.90;6.90;;;;;;;13.89;94.56;99103.47;4109802;28;20700;-89
2023/10/01 00:23:07;;;;;;;11.47;7.40;;;;;;;13.87;94.20;99103.59;4093635;29;20628;-89
2023/10/01 00:25:10;;;;;;;12.67;7.50;;;;;;;13.85;94.42;99094.97;4077212;29;20647;-89
2023/10/01 00:27:14;;;;;;;11.40;7.10;;;;;;;13.85;94.39;99099.41;4079655;29;21079;-89
2023/10/01 00:29:17;;;;;;;12.83;7.87;;;;;;;13.84;94.74;99097.72;4077986;29;20659;-89
2023/10/01 00:31:22;;;;;;;13.27;7.10;;;;;;;13.81;95.18;99096.09;4091717;28;20670;-89
2023/10/01 00:33:25;;;;;;;11.40;7.67;;;;;;;13.81;95.31;99098.72;4103610;28;20725;-89
2023/10/01 00:35:29;;;;;;;14.33;8.13;;;;;;;13.83;95.03;99099.50;4113551;28;20753;-89
2023/10/01 00:37:32;;;;;;;13.77;8.00;;;;;;;13.81;94.66;99098.72;4095569;28;20654;-89
2023/10/01 00:39:35;;;;;;;12.20;7.07;;;;;;;13.78;94.64;99092.84;4078628;29;20638;-89
2023/10/01 00:41:40;;;;;;;13.47;7.47;;;;;;;13.76;94.83;99098.19;4078841;29;20646;-89
2023/10/01 00:43:43;;;;;;;14.40;8.43;;;;;;;13.77;95.14;99105.13;4093856;29;21014;-89
2023/10/01 00:45:46;;;;;;;14.30;8.03;;;;;;;13.78;94.65;99116.47;4081633;29;20656;-89
2023/10/01 00:47:51;;;;;;;12.63;7.73;;;;;;;13.73;93.66;99098.41;4095883;28;20639;-89
2023/10/01 00:49:57;;;;;;;11.33;7.23;;;;;;;13.72;94.75;99099.31;4080278;28;20756;-89
2023/10/01 00:52:00;;;;;;;12.43;7.43;;;;;;;13.70;93.49;99095.97;4106152;28;20670;-90
2023/10/01 00:54:05;;;;;;;12.47;7.67;;;;;;;13.66;94.12;99102.34;4077379;29;21043;-89
2023/10/01 00:56:08;;;;;;;15.70;7.47;;;;;;;13.64;93.55;99096.38;4094376;28;20643;-89
2023/10/01 00:58:12;;;;;;;11.63;6.87;;;;;;;13.63;93.83;99099.09;4093924;29;20634;-89
2023/10/01 01:00:17;;;;;;;10.40;7.27;;;;;;;13.58;93.78;99093.31;4079748;29;20648;-89
2023/10/01 01:02:22;;;;;;;13.10;7.57;;;;;;;13.55;93.33;99090.06;4076475;29;20669;-89
2023/10/01 01:04:36;;;;;;;11.37;7.53;;;;;;;13.51;94.04;99091.19;4096531;29;20620;-89
2023/10/01 01:06:41;;;;;;;11.00;7.00;;;;;;;13.45;93.66;99086.31;4063535;29;20740;-91
2023/10/01 01:08:52;;;;;;;9.80;6.93;;;;;;;13.45;94.08;99089.78;4092261;28;21074;-91
2023/10/01 01:10:58;;;;;;;15.50;7.30;;;;;;;13.43;94.56;99099.53;4091000;28;20658;-90
2023/10/01 01:13:03;;;;;;;11.60;6.63;;;;;;;13.41;94.67;99098.78;4093063;28;20634;-90
2023/10/01 01:15:12;;;;;;;14.27;7.80;;;;;;;13.39;94.83;99103.28;4090275;28;20725;-90
2023/10/01 01:17:16;;;;;;;10.87;7.07;;;;;;;13.35;93.65;99096.56;4092251;28;20650;-90
2023/10/01 01:19:20;;;;;;;13.90;6.97;;;;;;;13.29;94.47;99090.84;4095228;28;20647;-92
2023/10/01 01:21:25;;;;;;;13.20;7.17;;;;;;;13.29;94.01;99083.00;4078609;29;20647;-92
2023/10/01 01:23:31;;;;;;;14.07;6.93;;;;;;;13.27;94.11;99085.69;4076369;29;20667;-91
2023/10/01 01:25:38;;;;;;;13.70;7.07;;;;;;;13.28;94.21;99087.41;4086136;28;20669;-91
2023/10/01 01:27:42;;;;;;;15.23;8.07;;;;;;;13.25;94.48;99097.25;4076311;29;20712;-91
2023/10/01 01:29:50;;;;;;;13.23;7.67;;;;;;;13.24;94.73;99096.41;4093078;28;21342;-91
2023/10/01 01:32:06;;;;;;;10.63;6.60;;;;;;;13.24;94.36;99100.78;4089825;28;20646;-91
2023/10/01 01:34:12;;;;;;;11.43;6.80;;;;;;;13.21;94.84;99100.97;4075380;29;20681;-90
2023/10/01 01:36:17;;;;;;;9.00;6.40;;;;;;;13.19;94.44;99103.69;4077949;29;20648;-91
2023/10/01 01:38:20;;;;;;;9.47;6.83;;;;;;;13.16;94.55;99100.44;4092642;28;20636;-90
2023/10/01 01:40:31;;;;;;;12.17;7.40;;;;;;;13.14;93.91;99110.16;4104637;28;21066;-91
2023/10/01 01:42:35;;;;;;;9.67;6.77;;;;;;;13.09;94.78;99100.91;4091429;28;20745;-90
2023/10/01 01:44:39;;;;;;;14.03;7.20;;;;;;;13.09;94.06;99101.75;4061021;29;20647;-91
2023/10/01 01:46:48;;;;;;;14.27;7.60;;;;;;;13.06;93.61;99104.53;4073378;29;20651;-91
2023/10/01 01:48:53;;;;;;;10.03;6.50;;;;;;;13.03;92.92;99096.88;4075701;29;20629;-91
2023/10/01 01:50:58;;;;;;;9.53;5.80;;;;;;;13.00;93.10;99093.63;4109788;28;20751;-90
2023/10/01 01:53:04;;;;;;;11.77;7.10;;;;;;;12.98;94.40;99095.50;4092639;28;20629;-91
2023/10/01 01:55:23;;;;;;;9.13;6.23;;;;;;;12.95;93.18;99088.66;4096759;28;20668;-91
2023/10/01 01:57:30;;;;;;;16.23;7.20;;;;;;;12.93;94.57;99077.47;4079183;29;20631;-91
2023/10/01 01:59:38;;;;;;;13.83;6.60;;;;;;;12.88;94.75;99079.50;4081781;29;21237;-91
2023/10/01 02:01:41;;;;;;;11.53;7.50;;;;;;;12.87;95.05;99080.44;4090514;28;20675;-90
2023/10/01 02:03:51;;;;;;;13.07;7.43;;;;;;;12.88;94.11;99082.13;4063215;29;20640;-92
2023/10/01 02:05:56;;;;;;;12.50;7.60;;;;;;;12.85;94.18;99081.47;4081426;29;20722;-91
2023/10/01 02:08:06;;;;;;;10.17;6.40;;;;;;;12.83;93.58;99080.72;4078681;29;20639;-89
2023/10/01 02:10:11;;;;;;;11.80;6.93;;;;;;;12.81;93.67;99075.56;4079803;29;20652;-90
2023/10/01 02:12:23;;;;;;;13.13;7.60;;;;;;;12.81;95.23;99072.94;4079212;29;20670;-91
2023/10/01 02:14:35;;;;;;;11.97;7.20;;;;;;;12.81;94.79;99070.31;4082743;29;20643;-90
2023/10/01 02:16:40;;;;;;;10.63;6.60;;;;;;;12.82;93.98;99071.16;4061851;29;20668;-90
2023/10/01 02:18:55;;;;;;;12.30;7.03;;;;;;;12.81;94.23;99072.94;4093888;28;20743;-90
2023/10/01 02:21:16;;;;;;;12.67;7.20;;;;;;;12.83;93.99;99067.66;4078962;29;20664;-90
2023/10/01 02:23:26;;;;;;;13.20;7.90;;;;;;;12.86;93.94;99068.28;4096697;28;20649;-89
2023/10/01 02:25:37;;;;;;;9.30;6.20;;;;;;;12.85;93.78;99069.25;4097713;28;20674;-90
2023/10/01 02:27:49;;;;;;;10.07;6.43;;;;;;;12.83;94.55;99063.25;4113992;28;20620;-90
2023/10/01 02:30:14;;;;;;;10.17;6.77;;;;;;;12.82;93.70;99065.91;4099877;28;21262;-90
2023/10/01 02:32:19;;;;;;;12.90;6.67;;;;;;;12.81;95.21;99069.50;4110431;28;20688;-90
2023/10/01 02:34:26;;;;;;;11.43;6.53;;;;;;;12.77;94.65;99063.56;4080797;29;20646;-89
2023/10/01 02:36:30;;;;;;;8.63;5.77;;;;;;;12.80;94.75;99070.41;4091732;28;20679;-90
2023/10/01 02:38:43;;;;;;;10.60;6.20;;;;;;;12.80;94.99;99068.63;4097378;28;20641;-90
2023/10/01 02:40:48;;;;;;;11.73;6.60;;;;;;;12.78;94.77;99067.06;4078904;29;21207;-90
2023/10/01 02:42:56;;;;;;;10.23;6.77;;;;;;;12.76;93.91;99058.44;4081984;29;20629;-89
2023/10/01 02:45:00;;;;;;;11.87;7.13;;;;;;;12.69;93.47;99055.38;4096516;28;20706;-89
2023/10/01 02:47:09;;;;;;;12.40;6.47;;;;;;;12.69;93.16;99065.00;4109767;28;21175;-89
2023/10/01 02:49:12;;;;;;;11.60;6.63;;;;;;;12.67;93.92;99056.38;4095902;28;21018;-89
2023/10/01 02:51:17;;;;;;;9.20;6.17;;;;;;;12.65;94.03;99060.06;4093387;28;21313;-90
2023/10/01 02:53:20;;;;;;;11.70;7.17;;;;;;;12.62;93.60;99062.84;4091272;28;20634;-89
2023/10/01 02:55:26;;;;;;;13.10;7.20;;;;;;;12.63;93.90;99059.28;4095654;28;20685;-90
2023/10/01 02:57:33;;;;;;;9.37;6.20;;;;;;;12.60;94.35;99062.94;4078262;29;20670;-89
2023/10/01 02:59:36;;;;;;;9.30;5.90;;;;;;;12.60;95.42;99062.94;4105333;28;20707;-90
2023/10/01 03:01:42;;;;;;;16.37;6.90;;;;;;;12.58;93.35;99071.81;4091289;28;20629;-89
2023/10/01 03:03:46;;;;;;;11.27;6.30;;;;;;;12.56;93.67;99065.84;4094924;28;20653;-90
2023/10/01 03:05:49;;;;;;;11.33;7.00;;;;;;;12.51;94.30;99066.13;4080394;29;20646;-90
2023/10/01 03:07:54;;;;;;;11.33;7.00;;;;;;;12.52;94.12;99066.94;4080567;29;20642;-90
2023/10/01 03:10:00;;;;;;;9.00;5.83;;;;;;;12.52;94.39;99066.94;4093847;28;21211;-90
2023/10/01 03:14:27;;;;;;;12.23;6.83;;;;;;;12.51;93.94;99065.25;4091097;28;20666;-89
2023/10/01 03:16:43;;;;;;;11.83;6.80;;;;;;;12.50;94.26;99061.81;4092584;28;20633;-89
2023/10/01 03:18:54;;;;;;;11.03;6.83;;;;;;;12.48;94.85;99054.97;4076360;29;21268;-90
2023/10/01 03:21:07;;;;;;;11.50;6.63;;;;;;;12.49;95.08;99051.44;4071881;29;20731;-90
2023/10/01 03:23:12;;;;;;;11.10;6.73;;;;;;;12.48;95.72;99057.59;4063849;29;20639;-90
2023/10/01 03:25:28;;;;;;;13.47;6.87;;;;;;;12.47;93.90;99048.06;4093457;28;20792;-90
2023/10/01 03:27:33;;;;;;;9.77;6.27;;;;;;;12.45;94.61;99056.03;4093927;28;20623;-90
2023/10/01 03:29:37;;;;;;;11.70;7.10;;;;;;;12.38;95.18;99057.31;4077925;29;20779;-90
2023/10/01 03:31:43;;;;;;;11.93;6.30;;;;;;;12.33;94.68;99051.53;4091940;28;20666;-90
2023/10/01 03:33:47;;;;;;;9.00;6.07;;;;;;;12.33;93.97;99048.06;4076183;29;20627;-90
2023/10/01 03:35:53;;;;;;;10.57;6.53;;;;;;;12.27;92.60;99059.72;4078670;29;20749;-90
2023/10/01 03:38:10;;;;;;;12.57;6.97;;;;;;;12.26;92.71;99055.41;4074203;29;20631;-90
2023/10/01 03:40:18;;;;;;;10.77;5.90;;;;;;;12.27;93.41;99053.66;4081896;29;20623;-90
2023/10/01 03:42:22;;;;;;;9.83;5.30;;;;;;;12.23;94.13;99046.09;4078614;29;20652;-90
2023/10/01 03:47:04;;;;;;;10.73;7.18;;;;;;;12.25;95.70;99047.66;4210610;27;1295191;-89
2023/10/01 03:51:52;;;;;;;13.50;7.53;;;;;;;12.28;95.17;99050.09;4222240;28;20662;-89
2023/10/01 03:53:58;;;;;;;14.47;6.20;;;;;;;12.29;94.79;99049.19;4224142;28;21183;-89
2023/10/01 03:56:03;;;;;;;9.03;5.93;;;;;;;12.29;95.03;99057.84;4207683;28;20627;-90
2023/10/01 03:58:18;;;;;;;10.40;6.60;;;;;;;12.30;94.77;99061.34;4203984;28;20628;-89
2023/10/01 04:00:32;;;;;;;11.80;6.60;;;;;;;12.32;93.77;99060.28;4218315;28;20724;-90
2023/10/01 04:02:46;;;;;;;11.23;6.97;;;;;;;12.33;95.72;99056.75;4203976;28;20623;-89
2023/10/01 04:04:56;;;;;;;12.10;7.03;;;;;;;12.31;95.73;99056.00;4206390;28;21078;-90
2023/10/01 04:07:09;;;;;;;12.43;6.40;;;;;;;12.29;94.17;99044.78;4201791;28;21096;-89
2023/10/01 04:09:19;;;;;;;9.50;6.30;;;;;;;12.30;94.96;99050.88;4224379;28;21216;-89
2023/10/01 04:11:41;;;;;;;10.10;6.40;;;;;;;12.29;94.43;99038.72;4220154;28;20645;-90
2023/10/01 04:14:07;;;;;;;10.37;6.40;;;;;;;12.26;94.18;99044.97;4201858;28;20708;-89
2023/10/01 04:16:14;;;;;;;10.40;6.40;;;;;;;12.24;95.41;99040.78;4213312;28;20644;-89
2023/10/01 04:18:20;;;;;;;11.67;6.20;;;;;;;12.25;94.65;99045.06;4214912;28;20623;-90
2023/10/01 04:20:28;;;;;;;12.50;7.10;;;;;;;12.24;94.35;99044.22;4211509;28;20725;-90
2023/10/01 04:22:33;;;;;;;10.00;6.50;;;;;;;12.24;94.89;99048.63;4214247;28;21310;-89
2023/10/01 04:24:37;;;;;;;12.40;6.83;;;;;;;12.20;93.41;99049.72;4202909;28;20641;-90
2023/10/01 04:26:42;;;;;;;11.07;6.80;;;;;;;12.16;94.67;99048.22;4220016;28;20859;-89
2023/10/01 04:28:46;;;;;;;10.67;6.00;;;;;;;12.13;94.27;99048.41;4216132;28;21201;-90
2023/10/01 04:30:52;;;;;;;10.20;5.80;;;;;;;12.15;95.04;99051.78;4222840;27;21248;-90
2023/10/01 04:33:16;;;;;;;10.90;6.87;;;;;;;12.11;94.11;99039.81;4221585;28;20622;-90
2023/10/01 04:35:22;;;;;;;9.40;6.37;;;;;;;12.09;93.77;99044.31;4222626;27;21213;-90
2023/10/01 04:37:40;;;;;;;10.60;6.07;;;;;;;12.05;94.14;99045.41;4233787;27;20665;-89
2023/10/01 04:39:44;;;;;;;10.63;6.23;;;;;;;12.01;94.74;99037.81;4231312;27;21195;-90
2023/10/01 04:41:47;;;;;;;9.47;5.90;;;;;;;11.99;93.25;99039.69;4217344;28;21047;-90
2023/10/01 04:43:59;;;;;;;9.67;5.97;;;;;;;11.95;93.49;99033.81;4215799;28;21216;-90
2023/10/01 04:46:08;;;;;;;11.43;6.97;;;;;;;11.95;92.86;99028.59;4214054;28;20689;-90
2023/10/01 04:48:15;;;;;;;11.60;6.97;;;;;;;11.94;94.08;99039.97;4252172;27;20624;-90
2023/10/01 04:50:37;;;;;;;11.63;6.90;;;;;;;11.95;93.75;99032.97;4224548;27;21060;-90
2023/10/01 04:52:41;;;;;;;11.53;6.60;;;;;;;11.93;93.92;99025.19;4245879;27;20669;-90
2023/10/01 04:54:44;;;;;;;11.33;7.30;;;;;;;11.94;93.55;99037.34;4228548;27;21113;-91
2023/10/01 04:56:50;;;;;;;10.50;6.00;;;;;;;11.95;94.50;99031.22;4218272;27;20666;-89
2023/10/01 04:58:55;;;;;;;12.17;6.93;;;;;;;11.95;94.98;99036.44;4217993;28;20652;-91
2023/10/01 05:00:59;;;;;;;9.93;5.53;;;;;;;11.95;94.30;99044.28;4219113;28;20684;-90
2023/10/01 05:03:06;;;;;;;10.10;5.83;;;;;;;11.95;95.36;99044.28;4221161;27;20649;-90
2023/10/01 05:05:10;;;;;;;12.00;6.70;;;;;;;11.93;94.04;99047.91;4237231;27;20654;-90
2023/10/01 05:07:16;;;;;;;9.87;5.97;;;;;;;11.95;94.02;99054.72;4220522;27;21211;-90
2023/10/01 05:09:22;;;;;;;8.93;5.97;;;;;;;11.94;94.63;99054.81;4219880;28;21198;-90
2023/10/01 05:11:31;;;;;;;10.47;6.27;;;;;;;11.93;93.27;99055.75;4212652;28;20627;-91
2023/10/01 05:13:35;;;;;;;9.53;6.10;;;;;;;11.92;95.04;99060.13;4217256;27;20649;-90
2023/10/01 05:15:40;;;;;;;9.50;5.87;;;;;;;11.91;94.40;99074.13;4220491;27;20646;-91
2023/10/01 05:17:44;;;;;;;10.47;6.37;;;;;;;11.90;93.75;99066.38;4219694;27;20704;-90
2023/10/01 05:19:51;;;;;;;12.80;8.20;;;;;;;11.87;93.83;99064.78;4220979;27;20674;-89
2023/10/01 05:21:56;;;;;;;10.20;6.20;;;;;;;11.84;93.86;99067.56;4200951;28;20685;-91
2023/10/01 05:24:01;;;;;;;10.77;6.10;;;;;;;11.82;93.94;99065.97;4217475;27;20645;-89
2023/10/01 05:26:06;;;;;;;12.40;6.90;;;;;;;11.85;94.74;99073.66;4201733;28;21072;-90
2023/10/01 05:28:23;;;;;;;12.60;6.53;;;;;;;11.88;94.72;99074.31;4211980;28;20742;-90
2023/10/01 05:30:38;;;;;;;11.27;6.47;;;;;;;11.88;94.26;99078.69;4206823;28;20675;-89
2023/10/01 05:32:51;;;;;;;10.30;6.20;;;;;;;11.87;93.17;99072.63;4227348;27;20637;-91
2023/10/01 05:35:14;;;;;;;9.10;6.07;;;;;;;11.84;94.27;99072.78;4226078;27;20639;-90
2023/10/01 05:37:24;;;;;;;11.20;6.37;;;;;;;11.85;94.34;99076.25;4206783;28;20769;-91
2023/10/01 05:39:53;;;;;;;10.93;6.73;;;;;;;11.81;95.81;99086.03;4229286;27;20696;-90
2023/10/01 05:41:54;;;;;;;11.90;6.20;;;;;;;11.80;94.78;99081.75;4225611;27;20629;-90
2023/10/01 05:43:57;;;;;;;11.53;5.97;;;;;;;11.84;94.60;99078.00;4219232;28;20634;-90
2023/10/01 05:46:01;;;;;;;11.60;6.67;;;;;;;11.93;95.04;99081.88;4210484;28;20614;-90
2023/10/01 05:48:10;;;;;;;12.23;7.13;;;;;;;12.04;94.22;99092.56;4209414;28;20737;-90
2023/10/01 05:50:18;;;;;;;9.80;6.47;;;;;;;12.15;94.88;99098.00;4202440;28;20629;-90
2023/10/01 05:52:21;;;;;;;12.23;6.90;;;;;;;12.25;95.19;99094.75;4222276;27;20718;-90
2023/10/01 05:54:25;;;;;;;10.00;6.30;;;;;;;12.34;94.58;99094.22;4205424;28;20688;-90
2023/10/01 05:56:36;;;;;;;10.20;6.27;;;;;;;12.47;94.78;99100.41;4242860;27;20647;-90
2023/10/01 05:58:40;;;;;;;10.93;7.23;;;;;;;12.59;94.93;99110.97;4221136;27;20750;-90
2023/10/01 06:00:45;;;;;;;11.53;6.67;;;;;;;12.70;94.22;99114.66;4206065;28;20646;-90
2023/10/01 06:03:00;;;;;;;13.43;7.80;;;;;;;12.82;95.24;99120.88;4209032;28;20634;-90
2023/10/01 06:05:22;;;;;;;14.43;6.90;;;;;;;12.91;94.05;99118.59;4209673;28;20622;-90
2023/10/01 06:07:26;;;;;;;9.93;6.70;;;;;;;13.01;93.05;99116.25;4206147;28;20655;-93
2023/10/01 06:09:33;;;;;;;10.47;6.67;;;;;;;13.09;91.70;99120.06;4204430;28;21182;-90
2023/10/01 06:11:42;;;;;;;9.43;6.00;;;;;;;13.18;91.17;99126.53;4208186;28;21192;-95
2023/10/01 06:13:53;;;;;;;10.90;6.93;;;;;;;13.20;90.92;99115.88;4237616;27;20633;-89
2023/10/01 06:15:56;;;;;;;11.67;6.40;;;;;;;13.33;92.63;99126.41;4207033;28;21251;-89
2023/10/01 06:18:00;;;;;;;9.87;6.60;;;;;;;13.55;92.95;99138.06;4236804;27;21072;-90
2023/10/01 06:20:23;;;;;;;10.87;6.93;;;;;;;13.71;91.55;99131.75;4214217;28;20641;-91
2023/10/01 06:22:30;;;;;;;12.27;6.70;;;;;;;13.89;90.62;99138.44;4204429;28;20654;-90
2023/10/01 06:24:34;;;;;;;11.30;7.13;;;;;;;14.03;91.25;99140.16;4208143;28;20760;-87
2023/10/01 06:26:42;;;;;;;10.60;6.23;;;;;;;14.11;90.19;99137.91;4229019;27;20634;-89
2023/10/01 06:28:46;;;;;;;11.20;6.60;;;;;;;14.22;90.71;99147.59;4223470;27;21612;-90
2023/10/01 06:30:52;;;;;;;12.80;7.17;;;;;;;14.28;89.62;99141.09;4207250;27;21098;-90
2023/10/01 06:32:56;;;;;;;12.67;7.37;;;;;;;14.38;89.31;99126.41;4203808;28;20633;-90
2023/10/01 06:35:02;;;;;;;11.23;6.60;;;;;;;14.57;90.44;99127.72;4203330;28;20627;-90
2023/10/01 06:37:06;;;;;;;10.43;6.57;;;;;;;14.52;87.63;99121.91;4211239;27;20629;-90
2023/10/01 06:39:20;;;;;;;9.70;6.90;;;;;;;14.36;87.52;99117.81;4211762;28;20627;-90
2023/10/01 06:41:28;;;;;;;10.87;6.63;;;;;;;14.30;89.32;99131.34;4227506;27;20660;-89
2023/10/01 06:43:44;;;;;;;10.83;6.37;;;;;;;14.30;89.25;99123.47;4205722;28;20631;-89
2023/10/01 06:45:49;;;;;;;10.57;6.50;;;;;;;14.36;89.17;99125.69;4202764;28;20727;-89
2023/10/01 06:47:53;;;;;;;11.90;6.53;;;;;;;14.45;89.45;99130.28;4220687;28;20643;-89
2023/10/01 06:50:11;;;;;;;10.83;7.10;;;;;;;14.56;89.23;99146.19;4219518;27;20704;-90
2023/10/01 06:52:16;;;;;;;12.10;6.80;;;;;;;14.68;90.28;99140.94;4218597;27;20645;-89
2023/10/01 06:54:22;;;;;;;10.90;6.27;;;;;;;14.73;90.13;99144.94;4205821;28;20636;-89
2023/10/01 06:56:29;;;;;;;10.30;5.90;;;;;;;14.69;88.52;99153.97;4214506;28;20628;-89
2023/10/01 06:58:35;;;;;;;9.80;6.43;;;;;;;14.78;89.14;99155.97;4214708;28;21147;-89
2023/10/01 07:00:41;;;;;;;11.00;6.70;;;;;;;14.92;89.48;99158.50;4223787;28;20633;-89
2023/10/01 07:02:43;;;;;;;11.10;6.40;;;;;;;15.06;87.85;99158.38;4235026;27;20632;-91
2023/10/01 07:04:56;;;;;;;12.33;6.33;;;;;;;15.25;88.91;99164.09;4216484;27;20644;-92
2023/10/01 07:07:21;;;;;;;11.60;6.90;;;;;;;15.44;87.41;99161.81;4226554;27;20676;-91
2023/10/01 07:09:32;;;;;;;10.43;6.00;;;;;;;15.60;89.27;99158.81;4234115;27;20714;-90
2023/10/01 07:11:37;;;;;;;12.07;6.90;;;;;;;15.77;86.66;99157.63;4230357;27;20628;-90
2023/10/01 07:13:42;;;;;;;16.47;7.13;;;;;;;15.91;85.10;99155.69;4233684;27;21180;-93
2023/10/01 07:15:48;;;;;;;10.77;7.07;;;;;;;16.06;89.05;99157.22;4218236;28;20616;-90
2023/10/01 07:17:51;;;;;;;11.20;7.10;;;;;;;16.18;85.27;99165.03;4200171;28;21039;-90
2023/10/01 07:20:18;;;;;;;11.80;7.07;;;;;;;16.33;84.74;99169.22;4213113;28;20629;-91
2023/10/01 07:22:25;;;;;;;10.63;6.37;;;;;;;16.50;85.15;99154.78;4201446;28;20666;-93
2023/10/01 07:24:30;;;;;;;11.93;6.63;;;;;;;16.70;86.39;99162.84;4221202;27;20631;-89
2023/10/01 07:26:34;;;;;;;11.73;6.90;;;;;;;16.86;85.91;99166.00;4202273;28;20667;-90
2023/10/01 07:28:38;;;;;;;14.10;6.57;;;;;;;17.01;85.21;99165.69;4200928;28;20766;-88
2023/10/01 07:30:51;;;;;;;10.63;6.33;;;;;;;17.18;85.48;99170.47;4204778;28;21313;-87
2023/10/01 07:32:55;;;;;;;12.70;7.13;;;;;;;17.37;83.77;99176.03;4219389;27;20679;-87
2023/10/01 07:35:06;;;;;;;10.10;6.60;;;;;;;17.47;84.27;99178.69;4234784;27;20621;-88
2023/10/01 07:37:09;;;;;;;11.60;6.77;;;;;;;17.69;84.77;99176.00;4195908;28;20634;-88
2023/10/01 07:39:13;;;;;;;10.90;6.37;;;;;;;17.80;82.50;99173.38;4224773;28;21248;-88
2023/10/01 07:41:17;;;;;;;12.50;6.93;;;;;;;17.86;82.55;99179.94;4198575;28;20781;-87
2023/10/01 07:43:22;;;;;;;26.03;7.97;;;;;;;18.01;84.09;99184.81;4220708;28;20635;-87
2023/10/01 07:45:26;;;;;;;11.70;6.80;;;;;;;18.22;84.89;99188.41;4214691;28;20713;-89
2023/10/01 07:47:31;;;;;;;10.93;7.00;;;;;;;18.33;81.98;99191.00;4203478;28;20657;-92
2023/10/01 07:51:56;;;;;;;13.40;7.13;;;;;;;18.59;82.04;99183.44;4210629;28;20634;-90
2023/10/01 07:54:02;;;;;;;12.23;7.67;;;;;;;18.73;80.82;99191.06;4205463;28;21020;-89
2023/10/01 07:56:07;;;;;;;13.03;7.90;;;;;;;18.91;82.59;99193.03;4203127;28;21281;-93
2023/10/01 07:58:44;;;;;;;11.40;6.90;;;;;;;18.99;80.81;99187.91;4214232;28;20625;-91
2023/10/01 08:00:58;;;;;;;12.17;7.20;;;;;;;19.17;81.57;99201.41;4215701;28;20700;-94
2023/10/01 08:05:22;;;;;;;11.83;7.20;;;;;;;19.40;80.33;99190.53;4223124;27;21263;-92
2023/10/01 08:07:30;;;;;;;11.57;6.87;;;;;;;19.57;81.00;99193.38;4210904;28;20641;-93
2023/10/01 08:09:39;;;;;;;10.30;7.03;;;;;;;19.72;81.56;99186.75;4231442;27;21052;-92
2023/10/01 08:14:10;;;;;;;11.07;6.93;;;;;;;19.96;79.98;99188.09;4197851;28;21273;-91
2023/10/01 08:16:14;;;;;;;10.27;7.40;;;;;;;20.10;81.50;99194.84;4198001;28;20670;-89
2023/10/01 08:18:35;;;;;;;11.87;7.27;;;;;;;20.23;81.32;99195.44;4202886;28;20635;-89
2023/10/01 08:20:46;;;;;;;11.30;6.93;;;;;;;20.28;79.62;99198.50;4211777;28;20632;-92
2023/10/01 08:25:08;;;;;;;11.47;7.47;;;;;;;20.34;78.62;99196.13;4217872;28;20643;-95
2023/10/01 08:27:12;;;;;;;11.50;7.57;;;;;;;20.36;78.80;99196.84;4214266;28;20995;-93
2023/10/01 08:29:16;;;;;;;10.17;7.33;;;;;;;20.44;78.79;99199.63;4201774;28;20655;-94
2023/10/01 08:33:42;;;;;;;12.90;7.93;;;;;;;20.75;78.02;99191.44;4209392;28;20699;-89
2023/10/01 08:35:56;;;;;;;11.80;7.53;;;;;;;20.89;78.96;99197.13;4235902;27;20647;-89
2023/10/01 08:37:59;;;;;;;13.90;8.73;;;;;;;21.08;79.22;99201.56;4204083;28;20634;-91
2023/10/01 08:40:13;;;;;;;13.10;7.80;;;;;;;21.16;76.54;99202.53;4237399;27;20643;-90
2023/10/01 08:42:17;;;;;;;12.13;8.47;;;;;;;21.26;76.00;99202.50;4221102;27;20624;-89
2023/10/01 08:44:30;;;;;;;13.67;7.47;;;;;;;21.41;77.09;99201.94;4208826;28;20639;-89
2023/10/01 08:46:35;;;;;;;13.00;7.63;;;;;;;21.49;75.39;99205.56;4222204;27;20671;-88
2023/10/01 08:48:40;;;;;;;12.00;6.83;;;;;;;21.58;75.59;99206.50;4218104;27;20662;-89
2023/10/01 08:50:45;;;;;;;10.90;7.20;;;;;;;21.65;74.48;99194.31;4217566;27;20633;-93
2023/10/01 08:52:52;;;;;;;11.20;6.80;;;;;;;21.71;72.71;99197.22;4222488;27;20626;-91
2023/10/01 08:54:57;;;;;;;10.67;7.50;;;;;;;21.77;73.95;99192.16;4203590;28;20635;-90
2023/10/01 08:57:15;;;;;;;12.53;8.50;;;;;;;21.89;73.31;99198.09;4231720;27;22662;-93
2023/10/01 08:59:25;;;;;;;15.70;7.10;;;;;;;21.98;74.44;99189.25;4217518;28;21617;-91
2023/10/01 09:01:31;;;;;;;11.50;7.40;;;;;;;22.05;74.20;99191.16;4233693;27;20654;-89
2023/10/01 09:03:35;;;;;;;11.53;8.30;;;;;;;22.13;74.24;99195.72;4214793;28;20755;-87
2023/10/01 09:05:46;;;;;;;14.03;7.33;;;;;;;22.18;73.72;99190.81;4232549;27;21220;-87
2023/10/01 09:08:15;;;;;;;14.27;7.67;;;;;;;22.27;74.73;99196.94;4204347;28;20649;-89
2023/10/01 09:10:17;;;;;;;12.13;7.40;;;;;;;22.40;73.39;99197.41;4220532;27;20634;-89
2023/10/01 09:12:21;;;;;;;9.37;6.40;;;;;;;22.41;71.97;99193.75;4198803;28;21569;-90
2023/10/01 09:14:38;;;;;;;10.90;6.50;;;;;;;22.43;71.51;99190.94;4235352;27;20751;-90
2023/10/01 09:16:44;;;;;;;11.00;7.17;;;;;;;22.47;70.90;99190.47;4230851;27;21183;-89
2023/10/01 09:19:03;;;;;;;11.97;6.90;;;;;;;22.52;71.04;99179.38;4193278;28;21422;-90
2023/10/01 09:21:08;;;;;;;23.30;13.33;;;;;;;22.59;73.16;99175.97;4195688;28;20679;-92
2023/10/01 09:23:12;;;;;;;10.27;6.63;;;;;;;22.63;71.88;99179.16;4193428;28;20781;-89
2023/10/01 09:25:17;;;;;;;10.90;6.80;;;;;;;22.69;71.36;99186.53;4220130;28;20637;-87
2023/10/01 09:27:21;;;;;;;12.10;7.27;;;;;;;22.71;73.40;99181.91;4200931;28;20633;-89
2023/10/01 09:29:26;;;;;;;12.47;7.10;;;;;;;22.68;74.25;99179.53;4210749;27;20659;-89
2023/10/01 09:31:30;;;;;;;11.53;7.80;;;;;;;22.76;73.39;99177.78;4230246;27;21266;-89
2023/10/01 09:33:39;;;;;;;13.57;8.13;;;;;;;22.83;73.83;99171.69;4218531;28;20631;-87
2023/10/01 09:35:49;;;;;;;9.77;6.33;;;;;;;22.86;72.71;99176.69;4230027;27;20632;-93
2023/10/01 09:38:10;;;;;;;10.57;6.33;;;;;;;22.90;72.46;99170.09;4218713;27;20638;-94
2023/10/01 09:40:32;;;;;;;10.30;7.10;;;;;;;22.98;72.55;99178.16;4218769;27;21177;-95
2023/10/01 09:42:44;;;;;;;14.10;7.20;;;;;;;23.07;73.30;99176.41;4224102;28;20731;-91
2023/10/01 09:44:49;;;;;;;10.07;7.10;;;;;;;23.11;73.47;99175.06;4231531;27;20654;-90
2023/10/01 09:47:07;;;;;;;9.20;6.60;;;;;;;23.10;72.16;99166.25;4212131;27;20651;-91
2023/10/01 09:49:16;;;;;;;12.30;7.10;;;;;;;23.16;73.09;99168.31;4215348;27;20660;-90
2023/10/01 09:51:23;;;;;;;13.03;7.40;;;;;;;23.17;71.61;99166.47;4207048;27;20684;-91
2023/10/01 09:53:31;;;;;;;13.20;7.53;;;;;;;23.20;71.79;99159.84;4190267;28;21234;-90
2023/10/01 09:55:47;;;;;;;10.90;7.20;;;;;;;23.24;71.16;99155.03;4235140;27;21060;-91
2023/10/01 09:57:52;;;;;;;9.57;6.57;;;;;;;23.33;71.09;99157.63;4215146;27;20698;-89
2023/10/01 10:00:14;;;;;;;11.50;6.37;;;;;;;23.38;70.93;99152.63;4232242;27;20619;-87
2023/10/01 10:02:27;;;;;;;11.43;6.90;;;;;;;23.48;72.20;99152.50;4230287;27;20640;-90
2023/10/01 10:04:34;;;;;;;12.10;6.90;;;;;;;23.56;70.42;99148.06;4222157;27;20630;-88
2023/10/01 10:06:39;;;;;;;10.30;6.80;;;;;;;23.60;70.45;99154.72;4230838;27;20639;-88
2023/10/01 10:08:44;;;;;;;11.40;7.10;;;;;;;23.60;69.67;99144.06;4214831;27;20650;-87
2023/10/01 10:10:49;;;;;;;11.40;6.50;;;;;;;23.54;69.58;99133.22;4196641;28;20629;-87
2023/10/01 10:12:56;;;;;;;14.43;7.60;;;;;;;23.61;71.41;99136.94;4202284;28;20634;-87
2023/10/01 10:14:59;;;;;;;10.57;6.63;;;;;;;23.61;70.36;99137.75;4213609;28;20628;-88